Gaschem Orca — D5NS8 — position and weather

sailwx.info

Track history (hours):
 
Tides and Currents Weather Stations Pressure Air Temp Water Temp Dewpoint Dewpoint Depression Visibility Wind Speed Wind Dir Waves Ship Positions

Gaschem Orca

Last reported at 2018-Feb-16 18:25 UTC. Time now 2018-Feb-19 18:13 UTC.
Position N 26°11' W 079°19'.

Length 189 m; draft 10 m.

Type: Ship. MMSI: 636018002.

Date/timePositionNaut miles runAvg speedWind from/ knotsBaromVisibWave heightAir tempDewpointWater temp
2018-Feb-16 18:25N 26°11' W 079°19'816.7
2018-Feb-16 17:55N 26°08' W 079°28'715.9
2018-Feb-16 17:30N 26°02' W 079°31'918.1
2018-Feb-16 17:00N 25°53' W 079°32'1518.5
2018-Feb-16 16:11N 25°38' W 079°35'318.3
2018-Feb-16 16:00N 25°35' W 079°35'  
2018-Feb-14 01:02N 29°06' W 094°27'014.8
2018-Feb-14 01:00N 29°06' W 094°27'1813.3
2018-Feb-13 23:37N 29°20' W 094°41'1111.8
2018-Feb-13 22:42N 29°27' W 094°50'312.8
2018-Feb-13 22:30N 29°29' W 094°52'612.7
2018-Feb-13 22:00N 29°34' W 094°55'612.0
2018-Feb-13 21:30N 29°40' W 094°58'2 4.3
2018-Feb-13 21:00N 29°41' W 095°00'0 0.1
2018-Feb-13 18:34N 29°41' W 095°01'0 0.0
2018-Feb-13 18:28N 29°41' W 095°01'0 0.0
2018-Feb-13 16:55N 29°41' W 095°01'0 0.0
2018-Feb-13 16:28N 29°41' W 095°01'0 0.0
2018-Feb-13 12:58N 29°41' W 095°01'0 0.0
2018-Feb-13 12:25N 29°41' W 095°01'0 0.0
2018-Feb-13 11:58N 29°41' W 095°01'0 0.0
2018-Feb-13 11:25N 29°41' W 095°01'0 0.0
2018-Feb-13 00:07N 29°41' W 095°01'0 0.0
2018-Feb-12 23:46N 29°41' W 095°01'0 0.0
2018-Feb-12 23:25N 29°41' W 095°01'0 0.0
2018-Feb-12 22:34N 29°41' W 095°01'0 0.0
2018-Feb-12 22:16N 29°41' W 095°01'0 0.0
2018-Feb-12 21:49N 29°41' W 095°01'0 0.0
2018-Feb-12 18:16N 29°41' W 095°01'0 0.0
2018-Feb-12 16:52N 29°41' W 095°01'0 0.0
2018-Feb-12 16:13N 29°41' W 095°01'0 0.0
2018-Feb-12 15:55N 29°41' W 095°01'0 0.0
2018-Feb-11 19:16N 29°41' W 095°01'0 0.2
2018-Feb-11 19:01N 29°41' W 095°00'2 4.4
2018-Feb-11 18:30N 29°40' W 094°58'510.7
2018-Feb-11 18:01N 29°35' W 094°56'510.1
2018-Feb-11 17:31N 29°31' W 094°53'611.0
2018-Feb-11 17:00N 29°26' W 094°50'611.7
2018-Feb-11 16:30N 29°21' W 094°46'12 9.6
2018-Feb-11 15:13N 29°16' W 094°33'2 6.4
2018-Feb-11 14:56N 29°15' W 094°35'3 6.9
2018-Feb-11 14:30N 29°13' W 094°38'3 1.5
2018-Feb-11 12:17N 29°12' W 094°42'0 0.0
2018-Feb-10 10:05N 29°12' W 094°42'0 0.0
2018-Feb-10 08:26N 29°12' W 094°42'  
2018-Feb-06 19:08N 29°12' W 094°42'0 0.0
2018-Feb-06 18:56N 29°12' W 094°42'  
Track history (hours):
 
Tides and Currents Weather Stations Pressure Air Temp Water Temp Dewpoint Dewpoint Depression Visibility Wind Speed Wind Dir Waves Ship Positions

Gaschem Orca

Last reported at 2018-Feb-16 18:25 UTC. Time now 2018-Feb-19 18:13 UTC.
Position N 26°11' W 079°19'.

Length 189 m; draft 10 m.

Type: Ship. MMSI: 636018002.

Date/timePositionNaut miles runAvg speedWind from/ knotsBaromVisibWave heightAir tempDewpointWater temp
2018-Feb-16 18:25N 26°11' W 079°19'816.7
2018-Feb-16 17:55N 26°08' W 079°28'715.9
2018-Feb-16 17:30N 26°02' W 079°31'918.1
2018-Feb-16 17:00N 25°53' W 079°32'1518.5
2018-Feb-16 16:11N 25°38' W 079°35'318.3
2018-Feb-16 16:00N 25°35' W 079°35'  
2018-Feb-14 01:02N 29°06' W 094°27'014.8
2018-Feb-14 01:00N 29°06' W 094°27'1813.3
2018-Feb-13 23:37N 29°20' W 094°41'1111.8
2018-Feb-13 22:42N 29°27' W 094°50'312.8
2018-Feb-13 22:30N 29°29' W 094°52'612.7
2018-Feb-13 22:00N 29°34' W 094°55'612.0
2018-Feb-13 21:30N 29°40' W 094°58'2 4.3
2018-Feb-13 21:00N 29°41' W 095°00'0 0.1
2018-Feb-13 18:34N 29°41' W 095°01'0 0.0
2018-Feb-13 18:28N 29°41' W 095°01'0 0.0
2018-Feb-13 16:55N 29°41' W 095°01'0 0.0
2018-Feb-13 16:28N 29°41' W 095°01'0 0.0
2018-Feb-13 12:58N 29°41' W 095°01'0 0.0
2018-Feb-13 12:25N 29°41' W 095°01'0 0.0
2018-Feb-13 11:58N 29°41' W 095°01'0 0.0
2018-Feb-13 11:25N 29°41' W 095°01'0 0.0
2018-Feb-13 00:07N 29°41' W 095°01'0 0.0
2018-Feb-12 23:46N 29°41' W 095°01'0 0.0
2018-Feb-12 23:25N 29°41' W 095°01'0 0.0
2018-Feb-12 22:34N 29°41' W 095°01'0 0.0
2018-Feb-12 22:16N 29°41' W 095°01'0 0.0
2018-Feb-12 21:49N 29°41' W 095°01'0 0.0
2018-Feb-12 18:16N 29°41' W 095°01'0 0.0
2018-Feb-12 16:52N 29°41' W 095°01'0 0.0
2018-Feb-12 16:13N 29°41' W 095°01'0 0.0
2018-Feb-12 15:55N 29°41' W 095°01'0 0.0
2018-Feb-11 19:16N 29°41' W 095°01'0 0.2
2018-Feb-11 19:01N 29°41' W 095°00'2 4.4
2018-Feb-11 18:30N 29°40' W 094°58'510.7
2018-Feb-11 18:01N 29°35' W 094°56'510.1
2018-Feb-11 17:31N 29°31' W 094°53'611.0
2018-Feb-11 17:00N 29°26' W 094°50'611.7
2018-Feb-11 16:30N 29°21' W 094°46'12 9.6
2018-Feb-11 15:13N 29°16' W 094°33'2 6.4
2018-Feb-11 14:56N 29°15' W 094°35'3 6.9
2018-Feb-11 14:30N 29°13' W 094°38'3 1.5
2018-Feb-11 12:17N 29°12' W 094°42'0 0.0
2018-Feb-10 10:05N 29°12' W 094°42'0 0.0
2018-Feb-10 08:26N 29°12' W 094°42'  
2018-Feb-06 19:08N 29°12' W 094°42'0 0.0
2018-Feb-06 18:56N 29°12' W 094°42'  

Dump ship's entire track history